Time;durP1;ratioP1;P1;durP2;ratioP2;P2;SDS_P1;SDS_P2;PMS_P1;PMS_P2;Temp;Humidity;BMP_temperature;BMP_pressure;BME280_temperature;BME280_humidity;BME280_pressure;Samples;Min_cycle;Max_cycle;Signal;HPM_P1;HPM_P2
2022/01/15 00:01:19;;;;;;;83.22;28.02;;;;;;;;;;5132821;27;20174;-63
2022/01/15 00:03:46;;;;;;;88.30;28.17;;;;;;;;;;5138198;27;20528;-63
2022/01/15 00:06:12;;;;;;;94.90;29.63;;;;;;;;;;5135245;27;20125;-63
2022/01/15 00:08:38;;;;;;;92.30;29.33;;;;;;;;;;5148179;27;20075;-63
2022/01/15 00:11:05;;;;;;;100.13;31.13;;;;;;;;;;5152804;27;20043;-63
2022/01/15 00:13:31;;;;;;;102.50;30.98;;;;;;;;;;5134623;27;20059;-64
2022/01/15 00:16:14;;;;;;;92.57;29.23;;;;;;;;;;5131788;27;21017;-64
2022/01/15 00:18:44;;;;;;;111.50;31.48;;;;;;;;;;5132538;27;20052;-64
2022/01/15 00:21:11;;;;;;;106.90;28.70;;;;;;;;;;5132303;27;20052;-64
2022/01/15 00:23:39;;;;;;;111.50;29.58;;;;;;;;;;5132687;27;20054;-64
2022/01/15 00:26:05;;;;;;;109.97;30.52;;;;;;;;;;5151584;27;20502;-64
2022/01/15 00:28:31;;;;;;;104.40;31.48;;;;;;;;;;5151639;27;20055;-64
2022/01/15 00:30:58;;;;;;;103.30;28.65;;;;;;;;;;5149953;27;20047;-64
2022/01/15 00:33:25;;;;;;;112.10;30.20;;;;;;;;;;5136444;27;20051;-64
2022/01/15 00:35:52;;;;;;;114.28;28.75;;;;;;;;;;5152266;27;20648;-64
2022/01/15 00:38:18;;;;;;;105.88;26.75;;;;;;;;;;5145522;27;20056;-64
2022/01/15 00:40:45;;;;;;;126.43;29.30;;;;;;;;;;5140839;27;20056;-64
2022/01/15 00:43:11;;;;;;;106.15;25.42;;;;;;;;;;5137857;27;20052;-63
2022/01/15 00:45:37;;;;;;;111.97;25.52;;;;;;;;;;5132332;27;20429;-64
2022/01/15 00:48:04;;;;;;;106.45;24.90;;;;;;;;;;5131984;27;20071;-63
2022/01/15 00:50:30;;;;;;;100.50;24.55;;;;;;;;;;5131385;27;20052;-64
2022/01/15 00:52:57;;;;;;;84.63;23.88;;;;;;;;;;5132652;27;20062;-64
2022/01/15 00:55:23;;;;;;;87.72;23.75;;;;;;;;;;5138691;27;20047;-64
2022/01/15 00:57:49;;;;;;;93.53;24.38;;;;;;;;;;5151591;27;20077;-64
2022/01/15 01:00:19;;;;;;;101.40;24.05;;;;;;;;;;5132330;27;20079;-64
2022/01/15 01:02:45;;;;;;;104.53;25.45;;;;;;;;;;5146421;27;20050;-63
2022/01/15 01:05:12;;;;;;;99.03;26.08;;;;;;;;;;5152040;27;20063;-63
2022/01/15 01:07:38;;;;;;;118.75;26.55;;;;;;;;;;5151708;27;20055;-63
2022/01/15 01:21:00;;;;;;;111.10;23.88;;;;;;;;;;5141726;27;20105;-64
2022/01/15 01:23:26;;;;;;;88.13;22.23;;;;;;;;;;5131051;27;20054;-63
2022/01/15 01:26:00;;;;;;;85.75;24.02;;;;;;;;;;5151343;27;20051;-63
2022/01/15 01:28:34;;;;;;;88.53;22.45;;;;;;;;;;5152072;27;20183;-64
2022/01/15 01:31:16;;;;;;;97.85;24.20;;;;;;;;;;5138104;27;20047;-64
2022/01/15 01:33:47;;;;;;;126.95;26.08;;;;;;;;;;5146691;27;20055;-64
2022/01/15 01:36:37;;;;;;;105.35;24.75;;;;;;;;;;5151693;27;20055;-64
2022/01/15 01:39:10;;;;;;;92.47;23.35;;;;;;;;;;5144293;27;21536;-63
2022/01/15 01:41:41;;;;;;;103.25;25.65;;;;;;;;;;5130482;27;20074;-64
2022/01/15 01:44:14;;;;;;;102.90;24.25;;;;;;;;;;5131002;27;20075;-63
2022/01/15 01:46:51;;;;;;;100.85;24.92;;;;;;;;;;5134854;27;20135;-63
2022/01/15 01:49:19;;;;;;;96.97;23.48;;;;;;;;;;5134827;27;20093;-64
2022/01/15 01:51:45;;;;;;;92.78;23.33;;;;;;;;;;5151313;27;20062;-63
2022/01/15 01:54:13;;;;;;;83.70;22.00;;;;;;;;;;5151486;27;20146;-63
2022/01/15 01:56:40;;;;;;;90.68;21.65;;;;;;;;;;5140030;27;20146;-65
2022/01/15 01:59:07;;;;;;;79.03;20.83;;;;;;;;;;5130869;27;20051;-63
2022/01/15 02:01:33;;;;;;;88.93;20.67;;;;;;;;;;5131007;27;20521;-64
2022/01/15 02:04:00;;;;;;;77.57;19.80;;;;;;;;;;5129235;27;20051;-64
2022/01/15 02:06:26;;;;;;;102.15;19.83;;;;;;;;;;5143482;27;20051;-63
2022/01/15 02:08:55;;;;;;;73.40;18.25;;;;;;;;;;5130041;27;20574;-63
2022/01/15 02:11:21;;;;;;;87.07;20.30;;;;;;;;;;5130348;27;20615;-64
2022/01/15 02:13:47;;;;;;;71.13;21.95;;;;;;;;;;5129963;27;20051;-64
2022/01/15 02:16:15;;;;;;;56.92;19.17;;;;;;;;;;5131233;27;20071;-63
2022/01/15 02:18:41;;;;;;;68.53;18.92;;;;;;;;;;5129882;27;20052;-64
2022/01/15 02:23:36;;;;;;;74.55;18.33;;;;;;;;;;5137550;27;20489;-63
2022/01/15 02:26:04;;;;;;;72.80;16.95;;;;;;;;;;5150705;27;20081;-64
2022/01/15 02:28:35;;;;;;;73.45;17.75;;;;;;;;;;5150093;27;20061;-64
2022/01/15 02:31:03;;;;;;;79.57;19.00;;;;;;;;;;5151057;27;20051;-63
2022/01/15 02:33:30;;;;;;;62.70;16.67;;;;;;;;;;5131985;27;20052;-64
2022/01/15 02:35:56;;;;;;;66.65;16.55;;;;;;;;;;5129610;27;20048;-64
2022/01/15 02:38:23;;;;;;;69.75;17.20;;;;;;;;;;5129542;27;20147;-63
2022/01/15 02:40:49;;;;;;;64.80;15.65;;;;;;;;;;5137720;27;20133;-64
2022/01/15 02:43:18;;;;;;;74.68;17.55;;;;;;;;;;5150123;27;20523;-64
2022/01/15 02:45:54;;;;;;;75.50;17.13;;;;;;;;;;5150217;27;20145;-63
2022/01/15 02:48:23;;;;;;;69.13;17.30;;;;;;;;;;5150298;27;20059;-63
2022/01/15 02:50:49;;;;;;;71.97;17.65;;;;;;;;;;5142223;27;20058;-64
2022/01/15 02:53:18;;;;;;;77.28;18.50;;;;;;;;;;5132390;27;20078;-63
2022/01/15 02:55:46;;;;;;;72.00;16.67;;;;;;;;;;5143359;27;20142;-63
2022/01/15 02:58:13;;;;;;;68.47;17.52;;;;;;;;;;5141403;27;20052;-66
2022/01/15 03:00:39;;;;;;;70.55;17.48;;;;;;;;;;5132439;27;20105;-63
2022/01/15 03:03:06;;;;;;;56.22;15.43;;;;;;;;;;5133151;27;20098;-63
2022/01/15 03:05:32;;;;;;;62.08;15.27;;;;;;;;;;5133004;27;20051;-63
2022/01/15 03:07:59;;;;;;;64.43;14.68;;;;;;;;;;5132620;27;20707;-63
2022/01/15 03:10:25;;;;;;;64.43;16.60;;;;;;;;;;5148108;27;20051;-63
2022/01/15 03:12:54;;;;;;;64.18;15.43;;;;;;;;;;5144121;27;20053;-63
2022/01/15 03:15:20;;;;;;;64.63;14.60;;;;;;;;;;5139761;27;20727;-63
2022/01/15 03:17:47;;;;;;;64.13;14.80;;;;;;;;;;5130709;27;20146;-63
2022/01/15 03:20:15;;;;;;;57.13;13.90;;;;;;;;;;5150490;27;20108;-63
2022/01/15 03:22:41;;;;;;;59.33;13.90;;;;;;;;;;5152985;27;20051;-63
2022/01/15 03:25:08;;;;;;;53.90;14.63;;;;;;;;;;5152942;27;20055;-63
2022/01/15 03:27:35;;;;;;;48.50;12.90;;;;;;;;;;5154100;27;20081;-63
2022/01/15 03:30:01;;;;;;;49.05;13.50;;;;;;;;;;5133987;27;20116;-63
2022/01/15 03:32:28;;;;;;;45.13;12.27;;;;;;;;;;5145600;27;20535;-63
2022/01/15 03:34:54;;;;;;;45.47;12.13;;;;;;;;;;5153357;27;20045;-63
2022/01/15 03:37:20;;;;;;;45.08;13.35;;;;;;;;;;5149852;27;20051;-63
2022/01/15 03:39:47;;;;;;;50.38;12.88;;;;;;;;;;5152751;27;20463;-64
2022/01/15 03:42:13;;;;;;;40.97;12.50;;;;;;;;;;5152480;27;20058;-63
2022/01/15 03:44:40;;;;;;;45.22;12.45;;;;;;;;;;5152278;27;20171;-63
2022/01/15 03:47:07;;;;;;;56.85;13.70;;;;;;;;;;5148391;27;20053;-63
2022/01/15 03:49:33;;;;;;;55.15;13.15;;;;;;;;;;5147057;27;20055;-63
2022/01/15 03:52:00;;;;;;;60.53;13.88;;;;;;;;;;5152610;27;20074;-63
2022/01/15 03:54:26;;;;;;;52.70;13.00;;;;;;;;;;5152974;27;20059;-63
2022/01/15 03:56:52;;;;;;;54.85;14.02;;;;;;;;;;5132989;27;20051;-63
2022/01/15 03:59:19;;;;;;;60.33;13.73;;;;;;;;;;5131334;27;20592;-63
2022/01/15 04:01:45;;;;;;;53.92;13.50;;;;;;;;;;5130751;27;20518;-63
2022/01/15 04:04:12;;;;;;;47.92;12.13;;;;;;;;;;5131631;27;20079;-63
2022/01/15 04:06:39;;;;;;;55.65;13.20;;;;;;;;;;5146200;27;20055;-63
2022/01/15 04:09:05;;;;;;;60.63;13.02;;;;;;;;;;5151127;27;20061;-63
2022/01/15 04:11:32;;;;;;;62.85;14.10;;;;;;;;;;5153362;27;20047;-63
2022/01/15 04:13:58;;;;;;;44.05;12.07;;;;;;;;;;5132588;27;20057;-64
2022/01/15 04:16:24;;;;;;;61.15;13.15;;;;;;;;;;5143804;27;20051;-63
2022/01/15 04:18:51;;;;;;;57.65;12.80;;;;;;;;;;5132183;27;20139;-63
2022/01/15 04:21:17;;;;;;;54.63;12.40;;;;;;;;;;5131646;27;20518;-63
2022/01/15 04:23:43;;;;;;;42.25;11.13;;;;;;;;;;5132015;27;20056;-63
2022/01/15 04:26:09;;;;;;;48.03;11.20;;;;;;;;;;5132434;27;20122;-64
2022/01/15 04:28:36;;;;;;;48.83;13.32;;;;;;;;;;5131587;27;20043;-63
2022/01/15 04:31:05;;;;;;;60.63;13.10;;;;;;;;;;5131374;27;20051;-63
2022/01/15 04:33:35;;;;;;;52.88;13.15;;;;;;;;;;5131934;27;20062;-63
2022/01/15 04:36:02;;;;;;;69.30;12.88;;;;;;;;;;5131583;27;20230;-63
2022/01/15 04:38:30;;;;;;;51.42;12.00;;;;;;;;;;5150298;27;20046;-63
2022/01/15 04:40:56;;;;;;;45.42;13.55;;;;;;;;;;5151300;27;20055;-63
2022/01/15 04:43:22;;;;;;;49.60;10.98;;;;;;;;;;5152719;27;20179;-63
2022/01/15 04:45:49;;;;;;;50.42;12.77;;;;;;;;;;5135019;27;20553;-63
2022/01/15 04:48:15;;;;;;;66.30;12.07;;;;;;;;;;5132152;27;20146;-63
2022/01/15 04:50:42;;;;;;;56.42;12.70;;;;;;;;;;5131964;27;20052;-63
2022/01/15 04:53:09;;;;;;;53.20;12.35;;;;;;;;;;5132162;27;20509;-63
2022/01/15 04:55:36;;;;;;;54.50;12.80;;;;;;;;;;5134166;27;20433;-64
2022/01/15 04:58:02;;;;;;;62.63;13.38;;;;;;;;;;5132567;27;20047;-63
2022/01/15 05:00:29;;;;;;;59.03;12.77;;;;;;;;;;5132873;27;20056;-63
2022/01/15 05:02:57;;;;;;;59.85;12.68;;;;;;;;;;5131365;27;20052;-64
2022/01/15 05:05:24;;;;;;;55.65;13.15;;;;;;;;;;5131375;27;20101;-63
2022/01/15 05:07:52;;;;;;;51.08;12.60;;;;;;;;;;5146602;27;20059;-63
2022/01/15 05:10:23;;;;;;;61.53;13.70;;;;;;;;;;5152284;27;20047;-63
2022/01/15 05:12:50;;;;;;;57.50;13.00;;;;;;;;;;5151417;27;20524;-63
2022/01/15 05:15:18;;;;;;;47.20;11.52;;;;;;;;;;5131554;27;20052;-63
2022/01/15 05:17:45;;;;;;;39.22;9.75;;;;;;;;;;5144514;27;20058;-63
2022/01/15 05:20:12;;;;;;;41.25;10.68;;;;;;;;;;5151306;27;20584;-63
2022/01/15 05:22:39;;;;;;;42.47;10.93;;;;;;;;;;5151616;27;20515;-63
2022/01/15 05:25:08;;;;;;;51.88;10.85;;;;;;;;;;5151955;27;20073;-63
2022/01/15 05:27:39;;;;;;;46.25;11.35;;;;;;;;;;5150078;27;20108;-63
2022/01/15 05:30:05;;;;;;;52.80;13.18;;;;;;;;;;5149944;27;20081;-64
2022/01/15 05:32:32;;;;;;;65.63;12.35;;;;;;;;;;5131162;27;20504;-63
2022/01/15 05:34:58;;;;;;;58.65;11.48;;;;;;;;;;5138364;27;20519;-64
2022/01/15 05:37:24;;;;;;;43.75;12.15;;;;;;;;;;5151912;27;20051;-63
2022/01/15 05:39:51;;;;;;;43.22;12.45;;;;;;;;;;5134758;27;20052;-63
2022/01/15 05:42:17;;;;;;;44.13;11.52;;;;;;;;;;5130410;27;20071;-63
2022/01/15 05:44:44;;;;;;;49.67;11.77;;;;;;;;;;5135481;27;20155;-63
2022/01/15 05:47:10;;;;;;;39.65;10.68;;;;;;;;;;5148417;27;20051;-63
2022/01/15 05:49:37;;;;;;;45.30;11.25;;;;;;;;;;5130501;27;20136;-63
2022/01/15 05:52:03;;;;;;;40.50;11.57;;;;;;;;;;5130719;27;20052;-63
2022/01/15 05:54:30;;;;;;;39.67;12.27;;;;;;;;;;5132437;27;20062;-63
2022/01/15 05:56:57;;;;;;;46.25;11.70;;;;;;;;;;5151673;27;20051;-63
2022/01/15 05:59:23;;;;;;;52.65;12.25;;;;;;;;;;5150124;27;20051;-63
2022/01/15 06:01:49;;;;;;;45.10;11.60;;;;;;;;;;5152016;27;20053;-63
2022/01/15 06:04:16;;;;;;;52.25;11.57;;;;;;;;;;5147382;27;20054;-63
2022/01/15 06:06:42;;;;;;;45.00;11.15;;;;;;;;;;5134049;27;20051;-63
2022/01/15 06:09:08;;;;;;;50.08;11.95;;;;;;;;;;5141100;27;20574;-63
2022/01/15 06:11:37;;;;;;;63.50;11.98;;;;;;;;;;5130366;27;20521;-63
2022/01/15 06:14:03;;;;;;;57.40;12.38;;;;;;;;;;5129966;27;20472;-63
2022/01/15 06:16:29;;;;;;;73.85;16.00;;;;;;;;;;5148249;27;20057;-63
2022/01/15 06:18:56;;;;;;;82.65;16.33;;;;;;;;;;5149562;27;20059;-64
2022/01/15 06:21:22;;;;;;;69.80;15.93;;;;;;;;;;5145672;27;20512;-63
2022/01/15 06:23:48;;;;;;;83.78;17.08;;;;;;;;;;5129927;27;20047;-63
2022/01/15 06:26:15;;;;;;;92.00;15.95;;;;;;;;;;5143970;27;20059;-63
2022/01/15 06:28:41;;;;;;;72.97;16.50;;;;;;;;;;5150653;27;20146;-63
2022/01/15 06:31:07;;;;;;;102.55;17.80;;;;;;;;;;5150884;27;20047;-62
2022/01/15 06:33:34;;;;;;;77.13;15.85;;;;;;;;;;5150133;27;20073;-63
2022/01/15 06:36:00;;;;;;;110.50;21.30;;;;;;;;;;5132206;27;20058;-63
2022/01/15 06:38:27;;;;;;;82.97;19.17;;;;;;;;;;5133101;27;20850;-63
2022/01/15 06:40:54;;;;;;;120.07;19.38;;;;;;;;;;5151784;27;20138;-63
2022/01/15 06:43:20;;;;;;;103.65;20.83;;;;;;;;;;5150828;27;20053;-63
2022/01/15 06:45:47;;;;;;;129.52;23.25;;;;;;;;;;5134073;27;20512;-63
2022/01/15 06:48:13;;;;;;;147.55;24.02;;;;;;;;;;5129318;27;20048;-63
2022/01/15 06:50:40;;;;;;;81.53;20.98;;;;;;;;;;5130005;27;20083;-64
2022/01/15 06:53:06;;;;;;;140.60;25.10;;;;;;;;;;5129868;27;20452;-63
2022/01/15 06:55:32;;;;;;;114.55;23.83;;;;;;;;;;5135570;27;20052;-63
2022/01/15 06:57:59;;;;;;;89.88;22.92;;;;;;;;;;5128581;27;20055;-63
2022/01/15 07:00:25;;;;;;;98.82;24.95;;;;;;;;;;5129772;27;20052;-63
2022/01/15 07:02:51;;;;;;;102.78;24.58;;;;;;;;;;5130054;27;20424;-63
2022/01/15 07:05:20;;;;;;;102.70;23.65;;;;;;;;;;5138595;27;20056;-63
2022/01/15 07:07:47;;;;;;;112.45;24.98;;;;;;;;;;5149884;27;20146;-63
2022/01/15 07:10:13;;;;;;;110.32;25.02;;;;;;;;;;5150243;27;20053;-63
2022/01/15 07:12:40;;;;;;;112.47;24.38;;;;;;;;;;5143132;27;20055;-63
2022/01/15 07:15:07;;;;;;;118.05;22.30;;;;;;;;;;5136324;27;20469;-63
2022/01/15 07:17:39;;;;;;;210.45;24.92;;;;;;;;;;5147760;27;20188;-63
2022/01/15 07:20:06;;;;;;;113.05;22.80;;;;;;;;;;5131175;27;20480;-63
2022/01/15 07:22:32;;;;;;;104.35;24.10;;;;;;;;;;5128269;27;20051;-63
2022/01/15 07:24:58;;;;;;;100.68;20.17;;;;;;;;;;5134430;27;20553;-63
2022/01/15 07:27:25;;;;;;;90.43;18.52;;;;;;;;;;5150081;27;20055;-63
2022/01/15 07:29:53;;;;;;;67.00;15.20;;;;;;;;;;5140597;27;20044;-63
2022/01/15 07:32:20;;;;;;;95.72;18.17;;;;;;;;;;5129343;27;20083;-64
2022/01/15 07:34:46;;;;;;;72.40;15.50;;;;;;;;;;5134633;27;20051;-64
2022/01/15 07:37:12;;;;;;;118.25;18.42;;;;;;;;;;5130628;27;20073;-63
2022/01/15 07:39:39;;;;;;;97.75;16.45;;;;;;;;;;5134688;27;20533;-63
2022/01/15 07:42:06;;;;;;;114.50;19.45;;;;;;;;;;5141290;27;20494;-63
2022/01/15 07:44:32;;;;;;;97.93;18.00;;;;;;;;;;5135985;27;20511;-63
2022/01/15 07:46:58;;;;;;;102.20;16.55;;;;;;;;;;5146393;27;20246;-64
2022/01/15 07:49:25;;;;;;;98.72;20.15;;;;;;;;;;5153925;27;20059;-65
2022/01/15 07:51:51;;;;;;;76.05;17.42;;;;;;;;;;5146881;27;20146;-64
2022/01/15 07:54:18;;;;;;;94.78;17.10;;;;;;;;;;5132791;27;20134;-64
2022/01/15 07:56:44;;;;;;;110.60;16.38;;;;;;;;;;5132759;27;20571;-64
2022/01/15 07:59:10;;;;;;;52.55;15.07;;;;;;;;;;5132449;27;20062;-65
2022/01/15 08:01:36;;;;;;;107.80;16.13;;;;;;;;;;5133324;27;20078;-64
2022/01/15 08:04:03;;;;;;;100.65;16.63;;;;;;;;;;5145416;27;20505;-65
2022/01/15 08:06:30;;;;;;;88.85;15.32;;;;;;;;;;5146937;27;20158;-65
2022/01/15 08:08:56;;;;;;;82.63;16.23;;;;;;;;;;5132433;27;20134;-65
2022/01/15 08:11:22;;;;;;;108.53;17.30;;;;;;;;;;5113356;27;20055;-65
2022/01/15 08:13:48;;;;;;;127.32;21.35;;;;;;;;;;5143408;27;20057;-65
2022/01/15 08:16:15;;;;;;;155.23;20.55;;;;;;;;;;5152690;27;20054;-65
2022/01/15 08:18:41;;;;;;;80.88;16.65;;;;;;;;;;5150783;27;20051;-64
2022/01/15 08:21:07;;;;;;;94.55;17.02;;;;;;;;;;5141490;27;20432;-64
2022/01/15 08:23:35;;;;;;;99.35;18.33;;;;;;;;;;5132013;27;20075;-64
2022/01/15 08:26:03;;;;;;;95.82;17.02;;;;;;;;;;5131511;27;20062;-64
2022/01/15 08:28:29;;;;;;;133.30;17.92;;;;;;;;;;5131869;27;20050;-65
2022/01/15 08:30:56;;;;;;;78.40;16.08;;;;;;;;;;5134712;27;20066;-64
2022/01/15 08:33:22;;;;;;;100.75;18.63;;;;;;;;;;5136929;27;20569;-65
2022/01/15 08:35:49;;;;;;;103.03;16.88;;;;;;;;;;5131006;27;20075;-64
2022/01/15 08:38:15;;;;;;;130.02;18.13;;;;;;;;;;5134818;27;20082;-64
2022/01/15 08:40:42;;;;;;;106.45;18.10;;;;;;;;;;5141608;27;20047;-65
2022/01/15 08:43:08;;;;;;;93.78;16.65;;;;;;;;;;5138868;27;20078;-66
2022/01/15 08:45:37;;;;;;;84.00;17.50;;;;;;;;;;5144241;27;20089;-66
2022/01/15 08:48:03;;;;;;;77.47;17.40;;;;;;;;;;5144495;27;20051;-65
2022/01/15 08:50:30;;;;;;;109.18;15.65;;;;;;;;;;5132723;27;20437;-66
2022/01/15 08:52:56;;;;;;;97.07;15.85;;;;;;;;;;5131022;27;20054;-68
2022/01/15 08:55:28;;;;;;;121.25;21.15;;;;;;;;;;5131628;27;20051;-67
2022/01/15 08:57:55;;;;;;;91.38;15.95;;;;;;;;;;5131271;27;20512;-65
2022/01/15 09:00:22;;;;;;;63.85;18.30;;;;;;;;;;5130994;27;20155;-67
2022/01/15 09:02:48;;;;;;;73.53;16.88;;;;;;;;;;5131620;27;20048;-67
2022/01/15 09:05:15;;;;;;;120.22;18.05;;;;;;;;;;5130878;27;20066;-65
2022/01/15 09:07:42;;;;;;;123.70;18.95;;;;;;;;;;5131146;27;20593;-65
2022/01/15 09:10:08;;;;;;;141.00;19.15;;;;;;;;;;5130978;27;20063;-66
2022/01/15 09:12:39;;;;;;;128.43;19.92;;;;;;;;;;5132280;27;20188;-64
2022/01/15 09:15:25;;;;;;;106.45;20.40;;;;;;;;;;5138993;27;20066;-64
2022/01/15 09:17:52;;;;;;;129.00;19.30;;;;;;;;;;5144169;27;20600;-65
2022/01/15 09:20:19;;;;;;;92.20;20.30;;;;;;;;;;5130743;27;20134;-64
2022/01/15 09:22:45;;;;;;;162.25;21.92;;;;;;;;;;5138441;27;20139;-64
2022/01/15 09:25:11;;;;;;;152.55;21.90;;;;;;;;;;5135118;27;20058;-65
2022/01/15 09:30:23;;;;;;;171.98;21.08;;;;;;;;;;5130543;27;20196;-64
2022/01/15 09:32:50;;;;;;;121.25;20.92;;;;;;;;;;5144315;27;20142;-64
2022/01/15 09:35:18;;;;;;;198.05;22.27;;;;;;;;;;5137985;27;20523;-64
2022/01/15 09:37:47;;;;;;;175.60;22.17;;;;;;;;;;5151908;27;20059;-64
2022/01/15 09:40:13;;;;;;;144.05;20.55;;;;;;;;;;5136193;27;20105;-65
2022/01/15 09:42:40;;;;;;;159.02;23.05;;;;;;;;;;5135722;27;20139;-65
2022/01/15 09:45:08;;;;;;;180.57;21.00;;;;;;;;;;5142571;27;20433;-64
2022/01/15 09:47:36;;;;;;;134.68;23.30;;;;;;;;;;5141987;27;20055;-64
2022/01/15 09:50:07;;;;;;;155.98;25.70;;;;;;;;;;5142006;27;20866;-64
2022/01/15 09:52:34;;;;;;;132.50;23.52;;;;;;;;;;5137497;27;20532;-63
2022/01/15 09:55:01;;;;;;;182.60;24.73;;;;;;;;;;5145360;27;20537;-65
2022/01/15 09:57:27;;;;;;;156.88;25.35;;;;;;;;;;5144133;27;20055;-64
2022/01/15 09:59:53;;;;;;;152.00;24.83;;;;;;;;;;5135966;27;20158;-64
2022/01/15 10:02:20;;;;;;;131.57;23.40;;;;;;;;;;5138155;27;20051;-64
2022/01/15 10:04:47;;;;;;;138.73;23.23;;;;;;;;;;5132850;27;20062;-64
2022/01/15 10:07:22;;;;;;;113.53;20.70;;;;;;;;;;5142704;27;20526;-64
2022/01/15 10:09:50;;;;;;;142.38;24.83;;;;;;;;;;5133404;27;20515;-64
2022/01/15 10:12:31;;;;;;;127.85;22.70;;;;;;;;;;5138635;27;20052;-64
2022/01/15 10:15:02;;;;;;;122.40;23.15;;;;;;;;;;5128610;27;20051;-64
2022/01/15 10:17:29;;;;;;;104.85;22.65;;;;;;;;;;5135815;27;20496;-63
2022/01/15 10:20:00;;;;;;;136.18;22.63;;;;;;;;;;5143340;27;20500;-64
2022/01/15 10:22:27;;;;;;;114.53;21.17;;;;;;;;;;5150398;27;20057;-64
2022/01/15 10:24:57;;;;;;;98.05;20.60;;;;;;;;;;5143944;27;20146;-64
2022/01/15 10:27:27;;;;;;;98.05;18.52;;;;;;;;;;5130764;27;20054;-64
2022/01/15 10:29:53;;;;;;;82.68;21.23;;;;;;;;;;5128488;27;20056;-64
2022/01/15 10:32:19;;;;;;;134.45;22.60;;;;;;;;;;5128801;27;20154;-64
2022/01/15 10:34:46;;;;;;;178.77;24.67;;;;;;;;;;5132318;27;20053;-64
2022/01/15 10:37:14;;;;;;;124.35;20.70;;;;;;;;;;5132453;27;20564;-64
2022/01/15 10:39:40;;;;;;;199.82;25.95;;;;;;;;;;5128039;27;20534;-64
2022/01/15 10:42:14;;;;;;;152.65;24.10;;;;;;;;;;5138722;27;20156;-64
2022/01/15 10:44:42;;;;;;;119.68;23.23;;;;;;;;;;5128809;27;20581;-64
2022/01/15 10:47:10;;;;;;;134.68;23.20;;;;;;;;;;5129168;27;20059;-64
2022/01/15 10:49:38;;;;;;;120.13;22.85;;;;;;;;;;5138227;27;20049;-64
2022/01/15 10:52:05;;;;;;;113.45;22.17;;;;;;;;;;5134382;27;20138;-64
2022/01/15 10:54:34;;;;;;;134.77;24.10;;;;;;;;;;5133803;27;20546;-64
2022/01/15 10:57:08;;;;;;;120.50;24.40;;;;;;;;;;5145124;27;20054;-64
2022/01/15 10:59:34;;;;;;;102.93;22.90;;;;;;;;;;5133237;27;20048;-63
2022/01/15 11:02:17;;;;;;;122.88;24.92;;;;;;;;;;5142763;27;20054;-64
2022/01/15 11:04:43;;;;;;;101.13;22.02;;;;;;;;;;5131219;27;20147;-64
2022/01/15 11:07:13;;;;;;;111.20;24.70;;;;;;;;;;5134328;27;20055;-64
2022/01/15 11:09:42;;;;;;;92.95;22.20;;;;;;;;;;5140059;27;20053;-64
2022/01/15 11:12:09;;;;;;;105.70;22.40;;;;;;;;;;5140504;27;20055;-64
2022/01/15 11:14:36;;;;;;;98.88;20.38;;;;;;;;;;5136690;27;20142;-64
2022/01/15 11:17:02;;;;;;;100.55;22.25;;;;;;;;;;5131963;27;20147;-64
2022/01/15 11:19:32;;;;;;;94.55;22.63;;;;;;;;;;5131363;27;20056;-63
2022/01/15 11:21:59;;;;;;;119.88;21.30;;;;;;;;;;5131964;27;20127;-64
2022/01/15 11:24:25;;;;;;;106.78;23.13;;;;;;;;;;5132569;27;20060;-64
2022/01/15 11:26:55;;;;;;;119.82;24.60;;;;;;;;;;5139457;27;20664;-64
2022/01/15 11:29:21;;;;;;;82.68;20.73;;;;;;;;;;5140542;27;20060;-64
2022/01/15 11:31:51;;;;;;;82.30;19.45;;;;;;;;;;5138415;27;20055;-65
2022/01/15 11:34:19;;;;;;;72.03;20.15;;;;;;;;;;5153027;27;20124;-64
2022/01/15 11:36:46;;;;;;;62.63;18.90;;;;;;;;;;5141103;27;20055;-64
2022/01/15 11:39:21;;;;;;;62.90;18.08;;;;;;;;;;5140017;27;20057;-64
2022/01/15 11:41:49;;;;;;;65.32;19.15;;;;;;;;;;5149280;27;20086;-64
2022/01/15 11:44:17;;;;;;;71.60;18.27;;;;;;;;;;5141691;27;20850;-64
2022/01/15 11:46:54;;;;;;;74.75;17.88;;;;;;;;;;5146583;27;20043;-64
2022/01/15 11:49:24;;;;;;;65.72;17.45;;;;;;;;;;5131147;27;20104;-64
2022/01/15 11:51:57;;;;;;;57.35;15.95;;;;;;;;;;5144802;27;20055;-64
2022/01/15 11:54:23;;;;;;;80.30;18.70;;;;;;;;;;5130793;27;20051;-64
2022/01/15 11:56:50;;;;;;;91.20;18.58;;;;;;;;;;5130618;27;20142;-65
2022/01/15 11:59:25;;;;;;;92.85;19.35;;;;;;;;;;5132395;27;20055;-64
2022/01/15 12:01:53;;;;;;;78.50;19.50;;;;;;;;;;5132126;27;20146;-64
2022/01/15 12:04:25;;;;;;;85.10;19.90;;;;;;;;;;5131676;27;20070;-65
2022/01/15 12:07:07;;;;;;;85.28;19.88;;;;;;;;;;5131389;27;20052;-63
2022/01/15 12:09:34;;;;;;;80.22;21.05;;;;;;;;;;5143535;27;20055;-63
2022/01/15 12:12:02;;;;;;;74.07;20.33;;;;;;;;;;5131701;27;20915;-63
2022/01/15 12:14:46;;;;;;;75.93;21.27;;;;;;;;;;5130611;27;20077;-63
2022/01/15 12:17:27;;;;;;;78.28;18.33;;;;;;;;;;5137430;27;20511;-63
2022/01/15 12:19:54;;;;;;;65.85;18.83;;;;;;;;;;5148467;27;20055;-63
2022/01/15 12:22:43;;;;;;;70.90;19.48;;;;;;;;;;5147580;27;20057;-63
2022/01/15 12:25:18;;;;;;;64.85;20.83;;;;;;;;;;5130650;27;20468;-64
2022/01/15 12:27:56;;;;;;;94.15;21.73;;;;;;;;;;5130595;27;20121;-64
2022/01/15 12:30:42;;;;;;;85.80;21.67;;;;;;;;;;5130611;27;20062;-64
2022/01/15 12:33:13;;;;;;;65.05;21.15;;;;;;;;;;5135118;27;20429;-64
2022/01/15 12:35:56;;;;;;;95.15;22.35;;;;;;;;;;5149901;27;20065;-64
2022/01/15 12:38:27;;;;;;;77.38;21.92;;;;;;;;;;5135824;27;20176;-64
2022/01/15 12:40:56;;;;;;;70.75;20.02;;;;;;;;;;5144224;27;20065;-63
2022/01/15 12:43:23;;;;;;;72.30;20.98;;;;;;;;;;5151715;27;20428;-63
2022/01/15 12:45:51;;;;;;;83.15;21.75;;;;;;;;;;5150721;27;20096;-63
2022/01/15 12:48:19;;;;;;;64.50;19.98;;;;;;;;;;5151383;27;20488;-64
2022/01/15 12:50:47;;;;;;;67.25;22.05;;;;;;;;;;5141483;27;20957;-64
2022/01/15 12:53:14;;;;;;;81.68;21.08;;;;;;;;;;5132501;27;20062;-64
2022/01/15 12:55:41;;;;;;;67.95;19.83;;;;;;;;;;5129884;27;20044;-63
2022/01/15 12:58:09;;;;;;;91.80;20.17;;;;;;;;;;5129912;27;20800;-63
2022/01/15 13:00:37;;;;;;;79.75;19.90;;;;;;;;;;5134622;27;20087;-64
2022/01/15 13:03:08;;;;;;;75.28;18.77;;;;;;;;;;5138377;27;20090;-64
2022/01/15 13:05:38;;;;;;;64.50;18.83;;;;;;;;;;5132088;27;20054;-64
2022/01/15 13:08:06;;;;;;;56.78;18.98;;;;;;;;;;5138360;27;20139;-64
2022/01/15 13:10:49;;;;;;;58.95;19.95;;;;;;;;;;5130334;27;20076;-64
2022/01/15 13:13:21;;;;;;;62.95;19.40;;;;;;;;;;5135666;27;20051;-64
2022/01/15 13:15:49;;;;;;;69.95;20.05;;;;;;;;;;5130732;27;20066;-64
2022/01/15 13:18:16;;;;;;;56.22;18.15;;;;;;;;;;5130458;27;20055;-63
2022/01/15 13:20:43;;;;;;;55.97;18.83;;;;;;;;;;5129764;27;20154;-63
2022/01/15 13:23:10;;;;;;;54.95;17.83;;;;;;;;;;5130181;27;20180;-63
2022/01/15 13:25:36;;;;;;;50.33;18.15;;;;;;;;;;5132003;27;20567;-63
2022/01/15 13:28:03;;;;;;;58.75;19.85;;;;;;;;;;5151593;27;20051;-64
2022/01/15 13:30:29;;;;;;;53.88;19.50;;;;;;;;;;5154961;27;20051;-63
2022/01/15 13:32:59;;;;;;;50.45;16.98;;;;;;;;;;5144993;27;20052;-64
2022/01/15 13:35:30;;;;;;;46.53;17.50;;;;;;;;;;5131873;27;20505;-64
2022/01/15 13:37:58;;;;;;;58.65;19.58;;;;;;;;;;5133140;27;20049;-64
2022/01/15 13:40:29;;;;;;;44.00;17.37;;;;;;;;;;5133167;27;20047;-65
2022/01/15 13:42:56;;;;;;;46.17;18.15;;;;;;;;;;5141688;27;20544;-68
2022/01/15 13:45:23;;;;;;;47.58;17.95;;;;;;;;;;5151026;27;20467;-64
2022/01/15 13:47:49;;;;;;;46.45;18.70;;;;;;;;;;5132663;27;20584;-64
2022/01/15 13:53:26;;;;;;;41.27;16.40;;;;;;;;;;5132017;27;20056;-63
2022/01/15 13:56:07;;;;;;;44.70;16.95;;;;;;;;;;5129920;27;20265;-64
2022/01/15 13:58:33;;;;;;;41.35;16.45;;;;;;;;;;5128737;27;20043;-64
2022/01/15 14:01:26;;;;;;;44.17;18.00;;;;;;;;;;5140529;27;20059;-65
2022/01/15 14:03:52;;;;;;;57.17;19.63;;;;;;;;;;5129912;27;20047;-64
2022/01/15 14:06:19;;;;;;;53.38;19.30;;;;;;;;;;5131532;27;20054;-64
2022/01/15 14:08:57;;;;;;;58.45;20.52;;;;;;;;;;5139250;27;20051;-64
2022/01/15 14:11:24;;;;;;;51.78;20.40;;;;;;;;;;5129056;27;20052;-64
2022/01/15 14:13:50;;;;;;;51.90;20.60;;;;;;;;;;5128965;27;20514;-64
2022/01/15 14:16:20;;;;;;;52.38;21.08;;;;;;;;;;5142452;27;20058;-65
2022/01/15 14:18:53;;;;;;;49.50;20.55;;;;;;;;;;5147822;27;20070;-64
2022/01/15 14:21:40;;;;;;;57.17;20.63;;;;;;;;;;5141640;27;20083;-64
2022/01/15 14:24:17;;;;;;;57.38;20.23;;;;;;;;;;5147951;27;20058;-64
2022/01/15 14:26:48;;;;;;;49.58;19.70;;;;;;;;;;5149562;27;20149;-64
2022/01/15 14:29:14;;;;;;;56.53;21.88;;;;;;;;;;5148228;27;20061;-65
2022/01/15 14:31:40;;;;;;;49.85;21.13;;;;;;;;;;5143476;27;20102;-64
2022/01/15 14:34:07;;;;;;;51.92;19.65;;;;;;;;;;5134535;27;20052;-64
2022/01/15 14:36:33;;;;;;;48.92;18.67;;;;;;;;;;5136535;27;20066;-63
2022/01/15 14:39:04;;;;;;;46.00;18.67;;;;;;;;;;5128538;27;20489;-64